Time;durP1;ratioP1;P1;durP2;ratioP2;P2;SDS_P1;SDS_P2;PMS_P1;PMS_P2;Temp;Humidity;BMP_temperature;BMP_pressure;BME280_temperature;BME280_humidity;BME280_pressure;Samples;Min_cycle;Max_cycle;Signal;HPM_P1;HPM_P2
2021/12/09 05:39:30;;;;;;;;;;;;;;;3.42;84.70;96031.69;5064383;22;1781324;-72
2021/12/09 05:41:33;;;;;;;;;;;;;;;3.38;84.78;96035.59;5181822;22;5622;-72
2021/12/09 05:43:37;;;;;;;;;;;;;;;3.41;85.20;96037.88;5155457;22;5783;-73
2021/12/09 05:45:41;;;;;;;;;;;;;;;3.47;84.77;96037.22;5154339;23;5792;-74
2021/12/09 05:47:43;;;;;;;;;;;;;;;3.54;83.52;96041.78;5153330;22;5883;-74
2021/12/09 05:49:48;;;;;;;;;;;;;;;3.40;83.40;96043.28;5154790;23;5783;-73
2021/12/09 05:51:50;;;;;;;;;;;;;;;3.55;83.29;96052.06;5129636;23;5794;-73
2021/12/09 05:53:52;;;;;;;;;;;;;;;3.55;83.13;96057.28;5182365;22;5621;-73
2021/12/09 05:55:54;;;;;;;;;;;;;;;3.53;83.22;96055.81;5181350;22;5633;-73
2021/12/09 05:57:56;;;;;;;;;;;;;;;3.51;83.45;96053.34;5155491;23;5772;-74
2021/12/09 05:59:59;;;;;;;;;;;;;;;3.51;83.67;96050.75;5129918;23;5789;-74
2021/12/09 06:02:01;;;;;;;;;;;;;;;3.52;83.92;96048.97;5155743;23;5768;-73
2021/12/09 06:04:03;;;;;;;;;;;;;;;3.57;83.74;96050.09;5155716;22;5832;-73
2021/12/09 06:06:05;;;;;;;;;;;;;;;3.62;83.38;96054.81;5181129;22;5721;-72
2021/12/09 06:08:06;;;;;;;;;;;;;;;3.65;83.14;96057.09;5154983;23;5768;-73
2021/12/09 06:10:09;;;;;;;;;;;;;;;3.66;83.36;96058.72;5154678;23;5764;-72
2021/12/09 06:12:11;;;;;;;;;;;;;;;3.66;83.12;96059.53;5182023;22;5633;-72
2021/12/09 06:14:13;;;;;;;;;;;;;;;3.64;83.15;96068.53;5149586;23;5793;-73
2021/12/09 06:16:16;;;;;;;;;;;;;;;3.60;83.40;96069.84;5176029;23;5637;-72
2021/12/09 06:18:18;;;;;;;;;;;;;;;3.57;83.54;96068.38;5176167;23;5616;-73
2021/12/09 06:20:20;;;;;;;;;;;;;;;3.60;84.03;96072.47;5148989;23;5764;-73
2021/12/09 06:22:21;;;;;;;;;;;;;;;3.64;83.81;96068.53;5147699;23;5788;-73
2021/12/09 06:24:23;;;;;;;;;;;;;;;3.69;83.79;96068.84;5172857;23;5716;-73
2021/12/09 06:26:24;;;;;;;;;;;;;;;3.68;83.60;96072.44;5173678;23;5723;-74
2021/12/09 06:28:26;;;;;;;;;;;;;;;3.63;83.45;96082.59;5124127;23;5793;-74
2021/12/09 06:30:27;;;;;;;;;;;;;;;3.61;83.08;96087.97;5148747;23;5792;-74
2021/12/09 06:32:29;;;;;;;;;;;;;;;3.58;83.12;96085.69;5175307;23;5629;-74
2021/12/09 06:34:30;;;;;;;;;;;;;;;3.53;83.05;96087.19;5141476;23;5764;-74
2021/12/09 06:36:32;;;;;;;;;;;;;;;3.44;83.37;96091.59;5174846;23;5633;-78
2021/12/09 06:38:34;;;;;;;;;;;;;;;3.30;83.74;96090.50;5176187;23;5696;-73
2021/12/09 06:40:36;;;;;;;;;;;;;;;3.30;83.85;96100.13;5123739;23;5921;-73
2021/12/09 06:42:42;;;;;;;;;;;;;;;3.27;83.58;96093.41;5149293;23;5772;-74
2021/12/09 06:44:44;;;;;;;;;;;;;;;3.26;83.68;96099.63;5173332;23;5752;-72
2021/12/09 06:46:46;;;;;;;;;;;;;;;3.10;83.78;96100.44;5172477;23;5657;-77
2021/12/09 06:48:47;;;;;;;;;;;;;;;3.22;83.58;96104.38;5123536;23;5794;-78
2021/12/09 06:50:49;;;;;;;;;;;;;;;3.31;83.56;96106.97;5173897;23;5733;-79
2021/12/09 06:52:52;;;;;;;;;;;;;;;3.32;83.29;96109.41;5175564;23;5722;-79
2021/12/09 06:54:53;;;;;;;;;;;;;;;3.32;82.60;96109.41;5148604;23;5943;-79
2021/12/09 06:56:55;;;;;;;;;;;;;;;3.28;82.81;96104.66;5176051;23;5628;-78
2021/12/09 06:58:56;;;;;;;;;;;;;;;3.29;83.30;96108.94;5176710;23;5645;-78
2021/12/09 07:01:07;;;;;;;;;;;;;;;3.32;83.28;96114.66;5176855;23;5191;-76
2021/12/09 07:03:10;;;;;;;;;;;;;;;3.32;83.41;96104.19;5148711;23;7717;-79
2021/12/09 07:05:14;;;;;;;;;;;;;;;3.36;83.33;96109.91;5177502;23;5653;-70
2021/12/09 07:07:16;;;;;;;;;;;;;;;3.34;83.23;96112.69;5151323;23;5780;-75
2021/12/09 07:09:18;;;;;;;;;;;;;;;3.33;83.41;96118.88;5176062;23;5649;-75
2021/12/09 07:11:20;;;;;;;;;;;;;;;3.29;82.79;96114.97;5175064;23;5862;-75
2021/12/09 07:13:22;;;;;;;;;;;;;;;3.27;83.37;96124.75;5174509;23;5617;-79
2021/12/09 07:15:24;;;;;;;;;;;;;;;3.26;83.22;96125.75;5175072;23;5704;-75
2021/12/09 07:17:25;;;;;;;;;;;;;;;3.28;83.12;96134.22;5147780;23;5786;-71
2021/12/09 07:19:27;;;;;;;;;;;;;;;3.25;83.21;96125.91;5176132;23;5620;-75
2021/12/09 07:21:29;;;;;;;;;;;;;;;3.27;83.40;96129.16;5149691;23;5780;-75
2021/12/09 07:23:31;;;;;;;;;;;;;;;3.33;83.54;96123.31;5176244;23;5624;-75
2021/12/09 07:25:32;;;;;;;;;;;;;;;3.34;83.75;96127.53;5175116;23;5629;-72
2021/12/09 07:27:34;;;;;;;;;;;;;;;3.32;83.19;96132.13;5148277;23;6031;-75
2021/12/09 07:29:35;;;;;;;;;;;;;;;3.28;83.12;96134.22;5173735;23;6266;-75
2021/12/09 07:31:37;;;;;;;;;;;;;;;3.28;83.10;96144.66;5173709;23;6290;-76
2021/12/09 07:33:38;;;;;;;;;;;;;;;3.29;83.24;96148.94;5174918;23;5629;-72
2021/12/09 07:35:40;;;;;;;;;;;;;;;3.25;82.97;96147.63;5148099;23;5787;-76
2021/12/09 07:37:43;;;;;;;;;;;;;;;3.24;83.23;96147.78;5172758;23;5629;-69
2021/12/09 07:39:45;;;;;;;;;;;;;;;3.26;83.31;96149.25;5174141;23;5642;-71
2021/12/09 07:41:46;;;;;;;;;;;;;;;3.30;83.30;96150.56;5175647;23;5730;-75
2021/12/09 07:43:49;;;;;;;;;;;;;;;3.36;83.37;96157.75;5175252;23;5633;-73
2021/12/09 07:45:51;;;;;;;;;;;;;;;3.28;83.34;96162.97;5175809;23;5729;-71
2021/12/09 07:47:52;;;;;;;;;;;;;;;3.33;83.27;96163.31;5176793;23;5614;-75
2021/12/09 07:49:54;;;;;;;;;;;;;;;3.39;83.49;96167.03;5175615;23;5681;-73
2021/12/09 07:51:56;;;;;;;;;;;;;;;3.37;83.52;96174.22;5176146;23;5723;-75
2021/12/09 07:53:59;;;;;;;;;;;;;;;3.40;83.73;96179.16;5175795;23;6207;-74
2021/12/09 07:56:01;;;;;;;;;;;;;;;3.40;83.84;96185.19;5123480;23;5789;-73
2021/12/09 07:58:07;;;;;;;;;;;;;;;3.32;83.65;96182.56;5148980;23;5891;-74
2021/12/09 08:00:12;;;;;;;;;;;;;;;3.32;83.69;96182.56;5148504;23;5571;-76
2021/12/09 08:02:15;;;;;;;;;;;;;;;3.36;83.57;96186.47;5149234;23;7712;-75
2021/12/09 08:04:17;;;;;;;;;;;;;;;3.39;83.38;96187.94;5148798;23;5772;-73
2021/12/09 08:06:19;;;;;;;;;;;;;;;3.35;83.22;96197.91;5123443;23;5802;-72
2021/12/09 08:08:20;;;;;;;;;;;;;;;3.27;83.37;96195.28;5149833;23;5876;-72
2021/12/09 08:10:22;;;;;;;;;;;;;;;3.29;83.53;96193.34;5175246;23;5621;-70
2021/12/09 08:12:24;;;;;;;;;;;;;;;3.31;83.38;96191.41;5175661;23;5788;-72
2021/12/09 08:14:26;;;;;;;;;;;;;;;3.22;83.30;96197.59;5175831;23;5660;-73
2021/12/09 08:16:30;;;;;;;;;;;;;;;3.27;83.62;96197.09;5148642;23;5855;-76
2021/12/09 08:18:43;;;;;;;;;;;;;;;3.33;83.44;96192.03;5175102;23;5621;-74
2021/12/09 08:20:47;;;;;;;;;;;;;;;3.17;83.31;96199.84;5124120;23;5809;-75
2021/12/09 08:22:49;;;;;;;;;;;;;;;3.30;83.63;96202.81;5176715;23;5642;-77
2021/12/09 08:24:54;;;;;;;;;;;;;;;3.30;83.37;96200.22;5149147;23;5693;-77
2021/12/09 08:26:56;;;;;;;;;;;;;;;3.29;82.91;96209.03;5176385;23;7240;-77
2021/12/09 08:28:59;;;;;;;;;;;;;;;3.33;83.10;96212.94;5176250;23;5621;-77
2021/12/09 08:31:00;;;;;;;;;;;;;;;3.28;83.20;96209.16;5174881;23;5632;-77
2021/12/09 08:33:04;;;;;;;;;;;;;;;3.28;83.46;96212.59;5150220;23;5929;-76
2021/12/09 08:35:06;;;;;;;;;;;;;;;3.31;83.75;96212.28;5148487;23;7058;-75
2021/12/09 08:37:07;;;;;;;;;;;;;;;3.34;83.44;96217.19;5174194;23;5622;-72
2021/12/09 08:39:09;;;;;;;;;;;;;;;3.29;83.92;96209.03;5147358;23;5776;-72
2021/12/09 08:41:12;;;;;;;;;;;;;;;3.37;83.81;96216.03;5148995;23;5800;-72
2021/12/09 08:43:14;;;;;;;;;;;;;;;3.44;84.05;96215.25;5148341;23;5872;-71
2021/12/09 08:45:17;;;;;;;;;;;;;;;3.38;83.92;96215.88;5148021;23;5895;-70
2021/12/09 08:47:19;;;;;;;;;;;;;;;3.03;84.88;96203.91;5175031;23;5711;-71
2021/12/09 08:49:21;;;;;;;;;;;;;;;3.28;84.58;96207.38;5174999;23;5634;-73
2021/12/09 08:51:22;;;;;;;;;;;;;;;3.39;84.95;96214.88;5175602;23;5614;-74
2021/12/09 08:53:26;;;;;;;;;;;;;;;3.56;84.01;96215.72;5175502;23;5712;-74
2021/12/09 08:55:27;;;;;;;;;;;;;;;3.60;83.53;96221.44;5173422;23;5728;-76
2021/12/09 08:57:31;;;;;;;;;;;;;;;3.60;83.50;96226.66;5172229;23;5744;-74
2021/12/09 08:59:33;;;;;;;;;;;;;;;3.57;83.63;96217.34;5171163;23;5760;-75
2021/12/09 09:01:42;;;;;;;;;;;;;;;3.54;84.11;96228.16;5173651;23;5629;-73
2021/12/09 09:03:44;;;;;;;;;;;;;;;3.57;84.09;96222.59;5171772;23;5779;-73
2021/12/09 09:05:47;;;;;;;;;;;;;;;3.59;84.54;96222.41;5173999;23;5614;-73
2021/12/09 09:07:49;;;;;;;;;;;;;;;3.52;84.82;96234.53;5172730;23;5720;-76
2021/12/09 09:09:51;;;;;;;;;;;;;;;3.55;85.05;96218.50;5170978;23;5633;-73
2021/12/09 09:11:54;;;;;;;;;;;;;;;3.62;85.24;96224.69;5172538;23;5759;-73
2021/12/09 09:13:57;;;;;;;;;;;;;;;3.70;85.15;96230.75;5174443;23;5613;-73
2021/12/09 09:15:58;;;;;;;;;;;;;;;3.76;84.62;96229.28;5174001;23;6294;-72
2021/12/09 09:18:01;;;;;;;;;;;;;;;3.69;85.48;96223.06;5174800;23;5645;-73
2021/12/09 09:20:08;;;;;;;;;;;;;;;3.79;85.24;96221.94;5147917;23;5764;-73
2021/12/09 09:22:09;;;;;;;;;;;;;;;3.52;86.38;96226.69;5148518;23;5876;-72
2021/12/09 09:24:11;;;;;;;;;;;;;;;3.43;86.69;96221.44;5174158;23;5629;-72
2021/12/09 09:26:12;;;;;;;;;;;;;;;3.70;85.41;96222.09;5174102;23;5652;-72
2021/12/09 09:28:15;;;;;;;;;;;;;;;3.77;84.67;96231.72;5148048;23;5797;-72
2021/12/09 09:30:19;;;;;;;;;;;;;;;3.82;84.92;96233.84;5173619;23;5721;-72
2021/12/09 09:32:21;;;;;;;;;;;;;;;3.85;84.78;96235.31;5173770;23;5649;-72
2021/12/09 09:34:22;;;;;;;;;;;;;;;3.87;84.92;96241.22;5173865;23;5722;-71
2021/12/09 09:36:24;;;;;;;;;;;;;;;3.82;84.44;96244.31;5174412;23;5035;-72
2021/12/09 09:38:26;;;;;;;;;;;;;;;3.83;84.28;96238.09;5174178;23;7695;-72
2021/12/09 09:40:39;;;;;;;;;;;;;;;3.81;84.26;96245.28;5147757;23;5780;-72
2021/12/09 09:44:54;;;;;;;;;;;;;;;3.88;84.27;96248.06;5174321;23;5616;-72
2021/12/09 09:46:59;;;;;;;;;;;;;;;3.85;84.37;96254.47;5174203;23;5741;-71
2021/12/09 09:49:02;;;;;;;;;;;;;;;3.63;85.13;96253.31;5148671;23;5880;-72
2021/12/09 09:51:06;;;;;;;;;;;;;;;3.67;85.12;96264.25;5175894;23;5621;-71
2021/12/09 09:53:09;;;;;;;;;;;;;;;3.83;83.59;96256.41;5176062;23;5621;-72
2021/12/09 09:55:14;;;;;;;;;;;;;;;3.87;83.06;96255.09;5175898;23;6277;-72
2021/12/09 09:57:16;;;;;;;;;;;;;;;3.80;83.41;96254.13;5175781;23;5661;-72
2021/12/09 09:59:18;;;;;;;;;;;;;;;3.89;83.42;96252.31;5175780;23;5629;-72
2021/12/09 10:01:20;;;;;;;;;;;;;;;3.94;82.69;96255.25;5148323;23;5768;-72
2021/12/09 10:03:29;;;;;;;;;;;;;;;3.94;82.72;96245.59;5175775;23;5717;-72
2021/12/09 10:05:36;;;;;;;;;;;;;;;3.94;82.95;96248.22;5176264;23;5625;-72
2021/12/09 10:07:38;;;;;;;;;;;;;;;3.90;83.72;96246.91;5175710;23;5624;-71
2021/12/09 10:09:40;;;;;;;;;;;;;;;3.76;85.26;96258.06;5148647;23;5801;-72
2021/12/09 10:11:43;;;;;;;;;;;;;;;3.96;84.50;96254.09;5175878;23;5637;-71
2021/12/09 10:13:45;;;;;;;;;;;;;;;4.03;83.42;96260.31;5149399;23;5764;-71
2021/12/09 10:15:51;;;;;;;;;;;;;;;4.01;83.49;96256.22;5148823;23;5768;-71
2021/12/09 10:17:52;;;;;;;;;;;;;;;4.00;83.98;96258.03;5149176;23;5760;-71
2021/12/09 10:19:57;;;;;;;;;;;;;;;3.96;84.16;96259.31;5175230;23;5840;-71
2021/12/09 10:22:11;;;;;;;;;;;;;;;4.07;83.36;96252.94;5149069;23;5853;-71
2021/12/09 10:24:13;;;;;;;;;;;;;;;4.10;82.76;96260.47;5176028;23;5644;-71
2021/12/09 10:26:37;;;;;;;;;;;;;;;4.08;81.71;96252.78;5149026;23;5843;-72
2021/12/09 10:28:44;;;;;;;;;;;;;;;4.09;82.54;96251.00;5176436;23;5737;-72
2021/12/09 10:31:10;;;;;;;;;;;;;;;4.12;82.31;96249.84;5174629;23;5648;-72
2021/12/09 10:33:19;;;;;;;;;;;;;;;4.12;82.25;96250.66;5175790;23;5649;-73
2021/12/09 10:35:21;;;;;;;;;;;;;;;4.15;81.20;96254.72;5147677;23;5078;-73
2021/12/09 10:37:30;;;;;;;;;;;;;;;4.08;81.33;96249.38;5149423;23;6631;-71
2021/12/09 10:39:31;;;;;;;;;;;;;;;4.10;81.67;96252.63;5148166;23;5764;-71
2021/12/09 10:41:34;;;;;;;;;;;;;;;4.04;81.12;96250.66;5170530;23;5629;-73
2021/12/09 10:43:48;;;;;;;;;;;;;;;4.06;80.05;96246.88;5176594;23;5625;-76
2021/12/09 10:45:50;;;;;;;;;;;;;;;4.15;79.87;96250.31;5148644;23;5867;-77
2021/12/09 10:48:00;;;;;;;;;;;;;;;4.24;80.37;96245.88;5174773;23;5728;-73
2021/12/09 10:50:15;;;;;;;;;;;;;;;4.19;79.60;96237.72;5175267;23;5669;-75
2021/12/09 10:52:34;;;;;;;;;;;;;;;4.30;77.48;96238.19;5151217;23;6409;-74
2021/12/09 10:54:36;;;;;;;;;;;;;;;4.42;78.14;96237.81;5175173;23;5733;-74
2021/12/09 10:56:38;;;;;;;;;;;;;;;4.47;77.71;96238.97;5175562;23;5625;-74
2021/12/09 10:58:43;;;;;;;;;;;;;;;4.50;77.41;96232.56;5148840;23;5772;-70
2021/12/09 11:00:52;;;;;;;;;;;;;;;4.59;78.15;96232.38;5173279;23;5692;-69
2021/12/09 11:03:16;;;;;;;;;;;;;;;4.71;78.78;96222.34;5174033;23;5141;-69
2021/12/09 11:05:17;;;;;;;;;;;;;;;4.80;78.95;96230.97;5174343;23;5625;-71
2021/12/09 11:07:26;;;;;;;;;;;;;;;4.71;76.78;96222.34;5146684;23;5761;-70
2021/12/09 11:09:28;;;;;;;;;;;;;;;4.57;79.46;96231.72;5175283;23;5629;-70
2021/12/09 11:11:39;;;;;;;;;;;;;;;4.59;79.25;96229.75;5174546;23;5641;-70
2021/12/09 11:13:45;;;;;;;;;;;;;;;4.61;78.20;96238.25;5124320;23;5900;-69
2021/12/09 11:15:58;;;;;;;;;;;;;;;4.45;80.11;96238.31;5175809;23;5669;-69
2021/12/09 11:18:07;;;;;;;;;;;;;;;4.58;77.81;96233.34;5149433;23;5999;-70
2021/12/09 11:20:08;;;;;;;;;;;;;;;4.59;78.46;96232.38;5175485;23;5629;-70
2021/12/09 11:22:17;;;;;;;;;;;;;;;4.46;80.49;96228.66;5099459;23;5910;-70
2021/12/09 11:24:23;;;;;;;;;;;;;;;4.67;79.97;96234.97;5175410;23;5629;-70
2021/12/09 11:26:53;;;;;;;;;;;;;;;4.74;79.37;96226.41;5148169;23;5916;-70
2021/12/09 11:28:54;;;;;;;;;;;;;;;4.75;80.06;96228.03;5173913;23;5618;-71
2021/12/09 11:31:14;;;;;;;;;;;;;;;4.67;78.70;96227.09;5174530;23;5688;-70
2021/12/09 11:33:33;;;;;;;;;;;;;;;4.79;78.04;96226.72;5174575;23;5775;-71
2021/12/09 11:35:40;;;;;;;;;;;;;;;4.81;77.24;96235.22;5175274;23;5637;-71
2021/12/09 11:37:53;;;;;;;;;;;;;;;4.84;78.09;96237.50;5174755;23;5617;-71
2021/12/09 11:40:00;;;;;;;;;;;;;;;4.85;77.60;96233.88;5174169;23;5719;-71
2021/12/09 11:42:16;;;;;;;;;;;;;;;4.88;77.14;96238.81;5174893;23;5729;-71
2021/12/09 11:44:37;;;;;;;;;;;;;;;4.69;77.83;96240.03;5175835;23;5633;-71
2021/12/09 11:46:41;;;;;;;;;;;;;;;4.79;77.25;96229.34;5176102;23;5625;-71
2021/12/09 11:48:44;;;;;;;;;;;;;;;4.83;76.11;96231.44;5175498;23;5733;-71
2021/12/09 11:50:49;;;;;;;;;;;;;;;4.87;76.77;96242.38;5174062;23;5875;-71
2021/12/09 11:52:53;;;;;;;;;;;;;;;4.55;77.17;96241.56;5174582;23;5629;-71
2021/12/09 11:55:00;;;;;;;;;;;;;;;4.75;78.16;96243.75;5123456;23;5806;-71
2021/12/09 12:11:35;;;;;;;;;;;;;;;4.82;75.45;96226.38;5174808;23;5725;-70
2021/12/09 12:13:48;;;;;;;;;;;;;;;4.90;75.68;96234.22;5174621;23;5646;-70
2021/12/09 12:15:56;;;;;;;;;;;;;;;4.86;75.36;96230.28;5174938;23;5649;-70
2021/12/09 12:20:38;;;;;;;;;;;;;;;4.82;75.32;96216.72;5174604;23;5626;-70
2021/12/09 12:23:05;;;;;;;;;;;;;;;4.83;75.94;96218.34;5175558;23;5746;-70
2021/12/09 12:25:15;;;;;;;;;;;;;;;4.79;74.67;96211.03;5149048;23;5827;-70
2021/12/09 12:28:08;;;;;;;;;;;;;;;4.81;74.30;96216.91;5175357;23;6178;-70
2021/12/09 12:39:15;;;;;;;;;;;;;;;4.73;77.70;96206.44;5174782;23;5780;-70
2021/12/09 12:41:19;;;;;;;;;;;;;;;4.78;77.72;96206.78;5147470;23;6519;-70
2021/12/09 12:43:36;;;;;;;;;;;;;;;4.70;78.40;96204.19;5174623;23;5728;-70
2021/12/09 12:50:16;;;;;;;;;;;;;;;4.62;79.05;96192.75;5171336;23;5724;-70
2021/12/09 12:52:28;;;;;;;;;;;;;;;4.68;79.20;96197.31;5147748;23;5795;-70
2021/12/09 12:57:00;;;;;;;;;;;;;;;4.58;79.83;96191.47;5175763;23;5641;-70
2021/12/09 12:59:05;;;;;;;;;;;;;;;4.47;80.76;96197.06;5174168;23;5637;-71
2021/12/09 13:01:17;;;;;;;;;;;;;;;4.41;80.42;96197.75;5172731;23;5695;-71
2021/12/09 13:03:33;;;;;;;;;;;;;;;4.23;80.68;96197.97;5145741;23;5772;-71
2021/12/09 13:05:53;;;;;;;;;;;;;;;4.06;80.82;96191.97;5173947;23;5625;-71
2021/12/09 13:10:25;;;;;;;;;;;;;;;3.93;81.14;96193.47;5175074;23;5629;-70
2021/12/09 13:12:44;;;;;;;;;;;;;;;3.83;81.94;96198.06;5148849;23;5948;-71
2021/12/09 13:15:09;;;;;;;;;;;;;;;3.92;81.59;96199.69;5147467;23;5961;-71
2021/12/09 13:17:16;;;;;;;;;;;;;;;4.04;81.73;96196.53;5147932;23;5768;-70
2021/12/09 13:19:37;;;;;;;;;;;;;;;3.79;80.12;96197.56;5176054;23;5642;-70
2021/12/09 13:21:51;;;;;;;;;;;;;;;3.85;81.13;96193.47;5174654;23;5633;-71
2021/12/09 13:24:19;;;;;;;;;;;;;;;3.86;81.79;96190.72;5175034;23;5771;-71
2021/12/09 13:26:28;;;;;;;;;;;;;;;3.80;81.72;96193.97;5174982;23;5644;-71
2021/12/09 13:28:40;;;;;;;;;;;;;;;3.97;81.41;96195.59;5175442;23;5628;-71
2021/12/09 13:31:09;;;;;;;;;;;;;;;4.10;81.28;96197.69;5174599;23;5637;-71
2021/12/09 13:35:29;;;;;;;;;;;;;;;3.79;80.49;96194.97;5176906;23;5688;-70
2021/12/09 13:37:54;;;;;;;;;;;;;;;3.64;80.42;96194.81;5176028;23;5629;-71
2021/12/09 13:54:16;;;;;;;;;;;;;;;3.91;80.73;96192.81;5177447;23;5783;-71
2021/12/09 13:56:18;;;;;;;;;;;;;;;3.82;81.02;96188.59;5176307;23;5638;-70
2021/12/09 13:58:22;;;;;;;;;;;;;;;3.84;81.13;96187.44;5175649;23;5724;-71
2021/12/09 14:00:27;;;;;;;;;;;;;;;4.00;80.59;96184.78;5174991;23;5632;-71
2021/12/09 14:02:28;;;;;;;;;;;;;;;3.89;79.97;96185.16;5176885;23;5626;-69
2021/12/09 14:04:36;;;;;;;;;;;;;;;3.74;80.15;96178.97;5175828;23;5112;-71
2021/12/09 14:06:48;;;;;;;;;;;;;;;3.64;80.80;96178.31;5175350;23;8336;-71
2021/12/09 14:08:54;;;;;;;;;;;;;;;3.65;80.21;96182.56;5175764;23;6254;-71
2021/12/09 14:11:03;;;;;;;;;;;;;;;3.84;79.79;96178.75;5149366;23;5768;-70
2021/12/09 14:13:12;;;;;;;;;;;;;;;3.71;79.57;96176.66;5175057;23;5718;-70
2021/12/09 14:15:23;;;;;;;;;;;;;;;3.69;79.03;96183.88;5175858;23;6262;-71
2021/12/09 14:17:27;;;;;;;;;;;;;;;3.66;80.06;96184.19;5174720;23;5621;-71
2021/12/09 14:21:35;;;;;;;;;;;;;;;3.85;79.00;96181.25;5174408;23;5718;-71
2021/12/09 14:23:37;;;;;;;;;;;;;;;3.89;78.89;96166.84;5175740;23;5625;-70
2021/12/09 14:25:39;;;;;;;;;;;;;;;3.91;78.76;96170.09;5175916;23;5621;-71
2021/12/09 14:27:42;;;;;;;;;;;;;;;3.68;79.34;96172.59;5148354;23;5768;-71
2021/12/09 14:29:51;;;;;;;;;;;;;;;3.82;79.28;96173.72;5174904;23;5625;-71
2021/12/09 14:31:56;;;;;;;;;;;;;;;3.94;79.04;96177.59;5175802;23;5621;-71
2021/12/09 14:34:01;;;;;;;;;;;;;;;3.95;79.38;96179.22;5174050;23;5838;-70
2021/12/09 14:36:08;;;;;;;;;;;;;;;3.98;79.07;96183.34;5174567;23;5713;-71
2021/12/09 14:38:16;;;;;;;;;;;;;;;3.96;79.27;96174.81;5174568;23;5779;-71
2021/12/09 14:40:22;;;;;;;;;;;;;;;4.06;79.12;96191.97;5175000;23;5688;-71
2021/12/09 14:42:25;;;;;;;;;;;;;;;4.04;79.06;96186.09;5177205;23;5643;-70
2021/12/09 14:44:26;;;;;;;;;;;;;;;3.90;79.61;96186.78;5149394;23;5879;-70
2021/12/09 14:46:34;;;;;;;;;;;;;;;3.95;79.67;96187.09;5123720;23;5856;-70
2021/12/09 14:48:46;;;;;;;;;;;;;;;4.01;79.08;96183.00;5175470;23;5684;-70
2021/12/09 14:50:48;;;;;;;;;;;;;;;4.06;79.42;96186.72;5175143;23;5672;-70
2021/12/09 14:52:52;;;;;;;;;;;;;;;3.98;79.54;96184.16;5175127;23;5626;-70
2021/12/09 14:55:09;;;;;;;;;;;;;;;3.86;80.92;96193.34;5148259;23;5883;-70
2021/12/09 14:57:11;;;;;;;;;;;;;;;4.05;80.15;96195.56;5175006;23;6282;-71
2021/12/09 14:59:19;;;;;;;;;;;;;;;4.09;79.68;96190.84;5148498;23;5812;-72
2021/12/09 15:01:22;;;;;;;;;;;;;;;4.08;79.78;96187.41;5174415;23;5621;-72
2021/12/09 15:03:39;;;;;;;;;;;;;;;4.12;79.84;96184.44;5148135;23;5867;-72
2021/12/09 15:06:00;;;;;;;;;;;;;;;4.01;79.78;96189.03;5148977;23;5772;-70
2021/12/09 15:08:06;;;;;;;;;;;;;;;3.75;79.46;96189.25;5174460;23;6154;-70
2021/12/09 15:10:11;;;;;;;;;;;;;;;3.81;79.91;96193.00;5146983;23;5824;-71
2021/12/09 15:12:13;;;;;;;;;;;;;;;3.87;79.77;96191.53;5147586;23;5875;-71
2021/12/09 15:14:23;;;;;;;;;;;;;;;3.99;78.72;96190.19;5174240;23;5053;-71
2021/12/09 15:16:26;;;;;;;;;;;;;;;3.82;78.33;96189.41;5174526;23;5666;-71
2021/12/09 15:18:28;;;;;;;;;;;;;;;3.87;78.42;96181.06;5175234;23;5719;-72
2021/12/09 15:20:40;;;;;;;;;;;;;;;3.99;76.99;96193.63;5122190;23;5789;-71
2021/12/09 15:22:54;;;;;;;;;;;;;;;3.77;76.38;96191.69;5175090;23;5641;-72
2021/12/09 15:25:01;;;;;;;;;;;;;;;3.68;77.69;96192.69;5172476;23;6281;-71
2021/12/09 15:27:03;;;;;;;;;;;;;;;3.78;77.43;96188.91;5173061;23;5633;-72
2021/12/09 15:29:21;;;;;;;;;;;;;;;3.82;77.17;96188.59;5123376;23;5789;-72
2021/12/09 15:31:23;;;;;;;;;;;;;;;3.94;77.58;96188.06;5174091;23;5807;-72
2021/12/09 15:33:42;;;;;;;;;;;;;;;4.05;77.11;96182.47;5146829;23;5768;-72
2021/12/09 15:35:44;;;;;;;;;;;;;;;4.09;77.00;96190.84;5175129;23;5630;-72
2021/12/09 15:37:46;;;;;;;;;;;;;;;3.99;76.76;96193.63;5175497;23;5636;-72
2021/12/09 15:39:49;;;;;;;;;;;;;;;4.05;76.48;96194.75;5174523;23;5704;-72
2021/12/09 15:42:04;;;;;;;;;;;;;;;4.18;77.04;96197.66;5174270;23;5650;-72
2021/12/09 15:44:17;;;;;;;;;;;;;;;4.29;76.95;96201.72;5174613;23;5637;-72
2021/12/09 15:46:19;;;;;;;;;;;;;;;4.33;76.83;96200.41;5174591;23;5657;-72
2021/12/09 15:48:23;;;;;;;;;;;;;;;4.29;75.82;96207.75;5173024;23;5649;-72
2021/12/09 15:50:30;;;;;;;;;;;;;;;4.00;75.72;96203.09;5174328;23;5688;-72
2021/12/09 15:52:37;;;;;;;;;;;;;;;3.93;76.41;96202.13;5174035;23;5666;-72
2021/12/09 15:54:48;;;;;;;;;;;;;;;4.14;76.40;96208.63;5147306;23;5876;-72
2021/12/09 15:56:58;;;;;;;;;;;;;;;4.21;77.02;96204.38;5171790;23;5077;-72
2021/12/09 15:59:01;;;;;;;;;;;;;;;4.30;76.84;96211.19;5145342;23;7745;-72
2021/12/09 16:01:06;;;;;;;;;;;;;;;4.37;76.87;96209.53;5143951;23;5879;-72
2021/12/09 16:03:09;;;;;;;;;;;;;;;4.45;76.35;96220.00;5170713;23;5719;-72
2021/12/09 16:05:11;;;;;;;;;;;;;;;4.49;76.33;96223.06;5170974;23;5621;-72
2021/12/09 16:07:14;;;;;;;;;;;;;;;4.47;76.36;96231.09;5166976;23;6409;-72
2021/12/09 16:09:17;;;;;;;;;;;;;;;4.44;76.33;96231.44;5143502;23;5990;-71
2021/12/09 16:11:21;;;;;;;;;;;;;;;4.39;76.65;96223.28;5143765;23;5911;-72
2021/12/09 16:13:24;;;;;;;;;;;;;;;4.42;76.79;96232.59;5168758;23;5728;-72
2021/12/09 16:15:26;;;;;;;;;;;;;;;4.20;75.41;96228.91;5141257;23;5879;-72
2021/12/09 16:17:33;;;;;;;;;;;;;;;4.04;74.78;96234.97;5142781;23;5867;-71
2021/12/09 16:19:38;;;;;;;;;;;;;;;3.94;76.09;96239.56;5171178;23;5764;-71
2021/12/09 16:21:45;;;;;;;;;;;;;;;3.93;76.36;96237.94;5170701;23;5717;-71
2021/12/09 16:23:51;;;;;;;;;;;;;;;4.17;76.49;96229.22;5143725;23;5983;-71
2021/12/09 16:25:52;;;;;;;;;;;;;;;4.26;76.56;96236.06;5171010;23;5732;-71
2021/12/09 16:27:55;;;;;;;;;;;;;;;4.31;76.11;96236.41;5171030;23;5720;-71
2021/12/09 16:29:56;;;;;;;;;;;;;;;4.28;75.59;96234.09;5143807;23;5883;-72
2021/12/09 16:31:58;;;;;;;;;;;;;;;4.35;75.70;96235.06;5170708;23;5720;-71
2021/12/09 16:34:00;;;;;;;;;;;;;;;4.31;75.98;96242.44;5143754;23;5891;-71
2021/12/09 16:36:04;;;;;;;;;;;;;;;4.41;75.39;96239.63;5169971;23;5727;-71
2021/12/09 16:38:06;;;;;;;;;;;;;;;4.12;74.95;96245.44;5143647;23;5887;-71
2021/12/09 16:40:14;;;;;;;;;;;;;;;3.94;75.17;96250.00;5143399;23;5822;-71
2021/12/09 16:42:16;;;;;;;;;;;;;;;3.86;75.53;96237.78;5142333;23;5977;-71
2021/12/09 16:44:17;;;;;;;;;;;;;;;3.79;76.25;96226.34;5144108;23;5926;-71
2021/12/09 16:46:19;;;;;;;;;;;;;;;3.78;76.54;96235.16;5145106;23;5869;-71
2021/12/09 16:48:21;;;;;;;;;;;;;;;3.98;76.03;96223.38;5144146;23;5797;-70
2021/12/09 16:50:27;;;;;;;;;;;;;;;3.85;76.36;96222.22;5146883;23;5804;-70
2021/12/09 16:52:28;;;;;;;;;;;;;;;3.88;76.21;96221.94;5144104;23;5804;-69
2021/12/09 16:54:41;;;;;;;;;;;;;;;3.94;76.67;96222.06;5144740;23;6550;-71
2021/12/09 16:58:59;;;;;;;;;;;;;;;3.75;76.59;96207.56;5147051;23;6207;-70
2021/12/09 17:01:03;;;;;;;;;;;;;;;3.88;75.91;96220.13;5144664;23;6011;-69
2021/12/09 17:03:05;;;;;;;;;;;;;;;3.89;75.89;96216.53;5147231;23;5806;-69
2021/12/09 17:05:09;;;;;;;;;;;;;;;3.85;75.32;96223.06;5145961;23;5825;-70
2021/12/09 17:07:11;;;;;;;;;;;;;;;3.73;75.92;96221.75;5119110;23;7129;-72
2021/12/09 17:09:13;;;;;;;;;;;;;;;3.77;76.30;96223.06;5143743;23;6004;-71
2021/12/09 17:11:15;;;;;;;;;;;;;;;3.94;76.28;96223.88;5145708;23;5821;-72
2021/12/09 17:13:17;;;;;;;;;;;;;;;3.97;76.48;96229.59;5144023;23;5870;-71
2021/12/09 17:15:20;;;;;;;;;;;;;;;4.07;76.08;96224.97;5146274;23;5842;-71
2021/12/09 17:17:22;;;;;;;;;;;;;;;4.05;75.61;96226.94;5119215;23;5908;-71
2021/12/09 17:19:24;;;;;;;;;;;;;;;3.95;76.47;96231.53;5146328;23;5822;-71
2021/12/09 17:21:26;;;;;;;;;;;;;;;3.92;77.30;96225.84;5146601;23;6555;-71
2021/12/09 17:23:27;;;;;;;;;;;;;;;3.75;78.38;96230.28;5144887;23;5784;-71
2021/12/09 17:25:30;;;;;;;;;;;;;;;3.64;80.10;96228.81;5146179;23;5802;-71
2021/12/09 17:27:32;;;;;;;;;;;;;;;3.75;79.07;96230.28;5145437;23;5918;-71
2021/12/09 17:29:34;;;;;;;;;;;;;;;3.83;79.18;96238.09;5144289;23;5890;-71
2021/12/09 17:31:39;;;;;;;;;;;;;;;4.00;78.93;96239.72;5144417;23;5883;-72
2021/12/09 17:33:41;;;;;;;;;;;;;;;3.93;79.29;96251.00;5143802;23;5753;-72
2021/12/09 17:35:43;;;;;;;;;;;;;;;3.75;79.31;96240.72;5144814;23;5822;-72
2021/12/09 17:37:45;;;;;;;;;;;;;;;3.59;79.82;96240.72;5146013;23;5825;-71
2021/12/09 17:39:46;;;;;;;;;;;;;;;3.42;80.64;96240.72;5167432;23;6203;-71
2021/12/09 17:41:52;;;;;;;;;;;;;;;3.36;81.97;96241.34;5171136;23;5790;-71
2021/12/09 17:43:53;;;;;;;;;;;;;;;3.30;82.31;96236.78;5171130;23;5732;-72
2021/12/09 17:45:55;;;;;;;;;;;;;;;3.08;83.50;96237.41;5170695;23;6458;-72
2021/12/09 17:47:59;;;;;;;;;;;;;;;3.06;83.77;96236.72;5144040;23;6556;-71